Time,TemperatureF,DewpointF,PressureIn,WindDirection,WindDirectionDegrees,WindSpeedMPH,WindSpeedGustMPH,Humidity,HourlyPrecipIn,Conditions,Clouds,dailyrainin,SoftwareType,DateUTC
2013-05-16 00:02:00,50.0,48.0,-100.00,North,-999,0.0,0.0,93,-99.99,,,-99.99,,2013-05-16 07:02:00,
2013-05-16 00:12:00,50.0,48.0,-100.00,North,-999,0.0,0.0,93,-99.99,,,-99.99,,2013-05-16 07:12:00,
2013-05-16 00:24:00,50.0,48.0,-100.00,North,-999,0.0,0.0,93,-99.99,,,-99.99,,2013-05-16 07:24:00,
2013-05-16 00:34:00,50.0,48.0,-100.00,North,-999,0.0,0.0,93,-99.99,,,-99.99,,2013-05-16 07:34:00,
2013-05-16 00:44:00,50.0,48.0,-100.00,North,-999,0.0,0.0,93,-99.99,,,-99.99,,2013-05-16 07:44:00,
2013-05-16 00:54:00,50.0,48.0,-100.00,North,-999,0.0,0.0,93,-99.99,,,-99.99,,2013-05-16 07:54:00,
2013-05-16 01:03:00,50.0,48.0,-100.00,North,-999,0.0,0.0,93,-99.99,,,-99.99,,2013-05-16 08:03:00,
2013-05-16 01:13:00,50.0,48.0,-100.00,North,-999,0.0,0.0,93,-99.99,,,-99.99,,2013-05-16 08:13:00,
2013-05-16 01:23:00,50.0,48.0,-100.00,North,-999,0.0,0.0,93,-99.99,,,-99.99,,2013-05-16 08:23:00,
2013-05-16 01:34:00,50.0,48.0,-100.00,North,-999,0.0,0.0,93,-99.99,,,-99.99,,2013-05-16 08:34:00,
2013-05-16 01:44:00,50.0,48.0,-100.00,North,-999,0.0,0.0,93,-99.99,,,-99.99,,2013-05-16 08:44:00,
2013-05-16 01:55:00,50.0,48.0,-100.00,North,-999,0.0,0.0,93,-99.99,,,-99.99,,2013-05-16 08:55:00,
2013-05-16 02:04:00,50.0,48.0,-100.00,North,-999,0.0,0.0,93,-99.99,,,-99.99,,2013-05-16 09:04:00,
2013-05-16 02:14:00,50.0,48.0,-100.00,North,-999,0.0,0.0,93,-99.99,,,-99.99,,2013-05-16 09:14:00,
2013-05-16 02:24:00,50.0,48.0,-100.00,North,-999,0.0,0.0,93,-99.99,,,-99.99,,2013-05-16 09:24:00,
2013-05-16 02:35:00,50.0,48.0,-100.00,North,-999,0.0,0.0,93,-99.99,,,-99.99,,2013-05-16 09:35:00,
2013-05-16 02:45:00,50.0,48.0,-100.00,North,-999,0.0,0.0,93,-99.99,,,-99.99,,2013-05-16 09:45:00,
2013-05-16 02:55:00,50.0,48.0,-100.00,North,-999,0.0,0.0,93,-99.99,,,-99.99,,2013-05-16 09:55:00,
2013-05-16 03:04:00,50.0,48.0,-100.00,North,-999,0.0,0.0,93,-99.99,,,-99.99,,2013-05-16 10:04:00,
2013-05-16 03:15:00,50.0,48.0,-100.00,North,-999,0.0,0.0,93,-99.99,,,-99.99,,2013-05-16 10:15:00,
2013-05-16 03:24:00,50.0,48.0,-100.00,North,-999,0.0,0.0,93,-99.99,,,-99.99,,2013-05-16 10:24:00,
2013-05-16 03:35:00,50.0,48.0,-100.00,North,-999,0.0,0.0,93,-99.99,,,-99.99,,2013-05-16 10:35:00,
2013-05-16 03:45:00,50.0,48.0,-100.00,North,-999,0.0,0.0,93,-99.99,,,-99.99,,2013-05-16 10:45:00,
2013-05-16 03:56:00,50.0,48.0,-100.00,North,-999,0.0,0.0,93,-99.99,,,-99.99,,2013-05-16 10:56:00,
2013-05-16 04:03:00,51.0,49.0,-100.00,North,-999,0.0,0.0,93,-99.99,,,-99.99,,2013-05-16 11:03:00,
2013-05-16 04:05:00,50.0,48.0,-100.00,North,-999,0.0,0.0,93,-99.99,,,-99.99,,2013-05-16 11:05:00,
2013-05-16 04:14:00,50.0,48.0,-100.00,North,-999,0.0,0.0,93,-99.99,,,-99.99,,2013-05-16 11:14:00,
2013-05-16 04:25:00,51.0,49.0,-100.00,North,-999,0.0,0.0,93,-99.99,,,-99.99,,2013-05-16 11:25:00,
2013-05-16 04:35:00,51.0,49.0,-100.00,North,-999,0.0,0.0,93,-99.99,,,-99.99,,2013-05-16 11:35:00,
2013-05-16 04:46:00,51.0,49.0,-100.00,North,-999,0.0,0.0,93,-99.99,,,-99.99,,2013-05-16 11:46:00,
2013-05-16 04:57:00,51.0,49.0,-100.00,North,-999,0.0,0.0,93,-99.99,,,-99.99,,2013-05-16 11:57:00,
2013-05-16 05:13:00,51.0,49.0,-100.00,North,-999,0.0,0.0,93,-99.99,,,-99.99,,2013-05-16 12:13:00,
2013-05-16 05:23:00,51.0,49.0,-100.00,North,-999,0.0,0.0,93,-99.99,,,-99.99,,2013-05-16 12:23:00,
2013-05-16 05:34:00,51.0,49.0,-100.00,North,-999,0.0,0.0,93,-99.99,,,-99.99,,2013-05-16 12:34:00,
2013-05-16 05:45:00,51.0,49.0,-100.00,North,-999,0.0,0.0,93,-99.99,,,-99.99,,2013-05-16 12:45:00,
2013-05-16 05:53:00,51.0,49.0,-100.00,NE,45,0.0,1.0,93,-99.99,,,-99.99,,2013-05-16 12:53:00,
2013-05-16 06:04:00,51.0,49.0,-100.00,NE,45,0.0,1.0,93,-99.99,,,-99.99,,2013-05-16 13:04:00,
2013-05-16 06:12:00,51.0,49.0,-100.00,North,-999,0.0,0.0,93,-99.99,,,-99.99,,2013-05-16 13:12:00,
2013-05-16 06:26:00,51.0,49.0,-100.00,North,-999,0.0,0.0,93,-99.99,,,-99.99,,2013-05-16 13:26:00,
2013-05-16 06:35:00,51.0,49.0,-100.00,North,-999,0.0,0.0,93,-99.99,,,-99.99,,2013-05-16 13:35:00,
2013-05-16 06:43:00,51.0,49.0,-100.00,North,-999,0.0,0.0,93,-99.99,,,-99.99,,2013-05-16 13:43:00,
2013-05-16 06:55:00,51.0,49.0,-100.00,North,-999,0.0,0.0,93,-99.99,,,-99.99,,2013-05-16 13:55:00,
2013-05-16 07:03:00,51.0,49.0,-100.00,North,-999,0.0,0.0,93,-99.99,,,-99.99,,2013-05-16 14:03:00,
2013-05-16 07:05:00,51.0,49.0,-100.00,North,-999,0.0,0.0,93,-99.99,,,-99.99,,2013-05-16 14:05:00,
2013-05-16 07:15:00,51.0,49.0,-100.00,West,270,0.0,1.0,93,-99.99,,,-99.99,,2013-05-16 14:15:00,
2013-05-16 07:23:00,51.0,49.0,-100.00,North,-999,0.0,0.0,93,-99.99,,,-99.99,,2013-05-16 14:23:00,
2013-05-16 07:37:00,51.0,49.0,-100.00,North,-999,0.0,0.0,93,-99.99,,,-99.99,,2013-05-16 14:37:00,
2013-05-16 07:47:00,51.0,49.0,-100.00,North,-999,0.0,0.0,93,-99.99,,,-99.99,,2013-05-16 14:47:00,
2013-05-16 07:56:00,51.0,49.0,-100.00,North,-999,0.0,0.0,93,-99.99,,,-99.99,,2013-05-16 14:56:00,
2013-05-16 08:17:00,52.0,50.0,-100.00,North,-999,0.0,0.0,93,-99.99,,,-99.99,,2013-05-16 15:17:00,
2013-05-16 08:28:00,52.0,50.0,-100.00,North,-999,0.0,0.0,93,-99.99,,,-99.99,,2013-05-16 15:28:00,
2013-05-16 08:40:00,52.0,50.0,-100.00,North,-999,0.0,0.0,93,-99.99,,,-99.99,,2013-05-16 15:40:00,
2013-05-16 08:50:00,53.0,51.0,-100.00,North,-999,0.0,0.0,93,-99.99,,,-99.99,,2013-05-16 15:50:00,
2013-05-16 09:00:00,53.0,51.0,-100.00,North,-999,0.0,0.0,93,-99.99,,,-99.99,,2013-05-16 16:00:00,
2013-05-16 09:03:00,54.0,52.0,-100.00,SE,135,0.0,1.0,93,-99.99,,,-99.99,,2013-05-16 16:03:00,
2013-05-16 09:09:00,53.0,51.0,-100.00,North,-999,0.0,0.0,93,-99.99,,,-99.99,,2013-05-16 16:09:00,
2013-05-16 09:19:00,53.0,51.0,-100.00,North,-999,0.0,0.0,93,-99.99,,,-99.99,,2013-05-16 16:19:00,
2013-05-16 09:30:00,53.0,51.0,-100.00,North,-999,0.0,0.0,93,-99.99,,,-99.99,,2013-05-16 16:30:00,
2013-05-16 09:40:00,53.0,-99.9,-100.00,North,-999,0.0,0.0,93,-99.99,,,-99.99,,2013-05-16 16:40:00,
2013-05-16 09:50:00,54.0,52.0,-100.00,SE,135,0.0,1.0,93,-99.99,,,-99.99,,2013-05-16 16:50:00,
2013-05-16 10:00:00,54.0,52.0,-100.00,SE,135,0.0,1.0,93,-99.99,,,-99.99,,2013-05-16 17:00:00,
2013-05-16 13:51:00,56.0,45.0,-100.00,North,0,1.0,3.0,66,-99.99,,,-99.99,,2013-05-16 20:51:00,
2013-05-16 14:00:00,56.0,-99.9,-100.00,NW,315,3.0,5.0,65,-99.99,,,-99.99,,2013-05-16 21:00:00,
2013-05-16 14:10:00,56.0,-99.9,-100.00,NW,315,3.0,5.0,65,-99.99,,,-99.99,,2013-05-16 21:10:00,
2013-05-16 14:20:00,55.0,-99.9,-100.00,NW,315,1.0,3.0,68,-99.99,,,-99.99,,2013-05-16 21:20:00,
2013-05-16 14:29:00,55.0,45.0,-100.00,West,270,2.0,4.0,69,-99.99,,,-99.99,,2013-05-16 21:29:00,
2013-05-16 14:38:00,55.0,45.0,-100.00,West,270,2.0,4.0,69,-99.99,,,-99.99,,2013-05-16 21:38:00,
2013-05-16 14:50:00,55.0,-99.9,-100.00,SW,225,4.0,6.0,68,-99.99,,,-99.99,,2013-05-16 21:50:00,
2013-05-16 15:00:00,-999.0,-99.9,-100.00,West,270,2.0,4.0,67,-99.99,,,-99.99,,2013-05-16 22:00:00,
2013-05-16 15:08:00,55.0,44.0,-100.00,West,270,2.0,4.0,67,-99.99,,,-99.99,,2013-05-16 22:08:00,
2013-05-16 15:20:00,55.0,44.0,-100.00,SW,225,3.0,4.0,68,-99.99,,,-99.99,,2013-05-16 22:20:00,
2013-05-16 15:30:00,54.0,44.0,-100.00,SW,225,3.0,4.0,70,-99.99,,,-99.99,,2013-05-16 22:30:00,
2013-05-16 15:40:00,54.0,44.0,-100.00,SW,225,3.0,4.0,70,-99.99,,,-99.99,,2013-05-16 22:40:00,
2013-05-16 15:50:00,54.0,44.0,-100.00,NW,315,3.0,6.0,69,-99.99,,,-99.99,,2013-05-16 22:50:00,
2013-05-16 16:01:00,54.0,44.0,-100.00,NW,315,0.0,2.0,68,-99.99,,,-99.99,,2013-05-16 23:01:00,
2013-05-16 16:06:00,54.0,44.0,-100.00,NW,315,0.0,2.0,68,-99.99,,,-99.99,,2013-05-16 23:06:00,
2013-05-16 16:16:00,55.0,44.0,-100.00,West,270,3.0,6.0,66,-99.99,,,-99.99,,2013-05-16 23:16:00,
2013-05-16 16:24:00,55.0,44.0,-100.00,SW,225,4.0,8.0,65,-99.99,,,-99.99,,2013-05-16 23:24:00,
2013-05-16 16:34:00,55.0,44.0,-100.00,SW,225,4.0,8.0,65,-99.99,,,-99.99,,2013-05-16 23:34:00,
2013-05-16 16:45:00,55.0,44.0,-100.00,West,270,3.0,6.0,65,-99.99,,,-99.99,,2013-05-16 23:45:00,
2013-05-16 16:54:00,55.0,43.0,-100.00,West,270,6.0,11.0,64,-99.99,,,-99.99,,2013-05-16 23:54:00,
2013-05-16 17:02:00,55.0,43.0,-100.00,West,270,6.0,11.0,64,-99.99,,,-99.99,,2013-05-17 00:02:00,
2013-05-16 17:13:00,56.0,45.0,-100.00,SW,225,3.0,8.0,67,-99.99,,,-99.99,,2013-05-17 00:13:00,
2013-05-16 17:22:00,54.0,46.0,-100.00,West,270,4.0,9.0,74,-99.99,,,-99.99,,2013-05-17 00:22:00,
2013-05-16 17:33:00,54.0,46.0,-100.00,West,270,4.0,9.0,74,-99.99,,,-99.99,,2013-05-17 00:33:00,
2013-05-16 17:43:00,56.0,45.0,-100.00,SW,225,3.0,6.0,69,-99.99,,,-99.99,,2013-05-17 00:43:00,
2013-05-16 17:53:00,56.0,45.0,-100.00,West,270,3.0,8.0,66,-99.99,,,-99.99,,2013-05-17 00:53:00,
2013-05-16 18:03:00,56.0,45.0,-100.00,West,270,3.0,8.0,66,-99.99,,,-99.99,,2013-05-17 01:03:00,
2013-05-16 18:12:00,55.0,43.0,-100.00,SW,225,3.0,3.0,66,-99.99,,,-99.99,,2013-05-17 01:12:00,
2013-05-16 18:23:00,55.0,45.0,-100.00,SW,225,1.0,3.0,69,-99.99,,,-99.99,,2013-05-17 01:23:00,
2013-05-16 18:32:00,55.0,45.0,-100.00,SW,225,1.0,3.0,69,-99.99,,,-99.99,,2013-05-17 01:32:00,
2013-05-16 18:43:00,54.0,45.0,-100.00,SW,225,1.0,1.0,71,-99.99,,,-99.99,,2013-05-17 01:43:00,
2013-05-16 18:52:00,53.0,46.0,-100.00,SW,225,0.0,1.0,76,-99.99,,,-99.99,,2013-05-17 01:52:00,
2013-05-16 19:02:00,53.0,46.0,-100.00,SW,225,0.0,1.0,76,-99.99,,,-99.99,,2013-05-17 02:02:00,
2013-05-16 19:11:00,54.0,47.0,-100.00,SE,135,1.0,3.0,77,-99.99,,,-99.99,,2013-05-17 02:11:00,
2013-05-16 19:21:00,55.0,44.0,-100.00,SW,225,3.0,4.0,68,-99.99,,,-99.99,,2013-05-17 02:21:00,
2013-05-16 19:32:00,55.0,44.0,-100.00,SW,225,3.0,4.0,68,-99.99,,,-99.99,,2013-05-17 02:32:00,
2013-05-16 19:42:00,54.0,44.0,-100.00,West,270,1.0,1.0,69,-99.99,,,-99.99,,2013-05-17 02:42:00,
2013-05-16 19:53:00,53.0,44.0,-100.00,West,270,3.0,4.0,70,-99.99,,,-99.99,,2013-05-17 02:53:00,
2013-05-16 20:01:00,53.0,44.0,-100.00,West,270,3.0,4.0,70,-99.99,,,-99.99,,2013-05-17 03:01:00,
2013-05-16 20:11:00,52.0,43.0,-100.00,West,270,1.0,3.0,70,-99.99,,,-99.99,,2013-05-17 03:11:00,
2013-05-16 20:22:00,52.0,43.0,-100.00,West,270,0.0,1.0,73,-99.99,,,-99.99,,2013-05-17 03:22:00,
2013-05-16 20:34:00,52.0,43.0,-100.00,West,270,0.0,1.0,73,-99.99,,,-99.99,,2013-05-17 03:34:00,
2013-05-16 20:43:00,51.0,44.0,-100.00,West,270,1.0,1.0,75,-99.99,,,-99.99,,2013-05-17 03:43:00,
2013-05-16 20:53:00,51.0,44.0,-100.00,West,270,0.0,2.0,76,-99.99,,,-99.99,,2013-05-17 03:53:00,
2013-05-16 21:02:00,51.0,44.0,-100.00,West,270,0.0,2.0,76,-99.99,,,-99.99,,2013-05-17 04:02:00,
2013-05-16 21:13:00,50.0,44.0,-100.00,West,270,0.0,1.0,78,-99.99,,,-99.99,,2013-05-17 04:13:00,
2013-05-16 21:23:00,50.0,44.0,-100.00,North,-999,0.0,0.0,80,-99.99,,,-99.99,,2013-05-17 04:23:00,
2013-05-16 21:33:00,50.0,44.0,-100.00,North,-999,0.0,0.0,80,-99.99,,,-99.99,,2013-05-17 04:33:00,
2013-05-16 21:43:00,50.0,44.0,-100.00,North,-999,0.0,0.0,80,-99.99,,,-99.99,,2013-05-17 04:43:00,
2013-05-16 21:53:00,49.0,44.0,-100.00,North,-999,0.0,0.0,82,-99.99,,,-99.99,,2013-05-17 04:53:00,
2013-05-16 22:02:00,49.0,44.0,-100.00,North,-999,0.0,0.0,82,-99.99,,,-99.99,,2013-05-17 05:02:00,
2013-05-16 22:13:00,49.0,44.0,-100.00,North,-999,0.0,0.0,84,-99.99,,,-99.99,,2013-05-17 05:13:00,
2013-05-16 22:22:00,48.0,43.0,-100.00,North,-999,0.0,0.0,85,-99.99,,,-99.99,,2013-05-17 05:22:00,
2013-05-16 22:32:00,48.0,43.0,-100.00,North,-999,0.0,0.0,85,-99.99,,,-99.99,,2013-05-17 05:32:00,
2013-05-16 22:42:00,47.0,43.0,-100.00,North,-999,0.0,0.0,86,-99.99,,,-99.99,,2013-05-17 05:42:00,
2013-05-16 22:52:00,47.0,43.0,-100.00,North,-999,0.0,0.0,87,-99.99,,,-99.99,,2013-05-17 05:52:00,
2013-05-16 23:01:00,47.0,43.0,-100.00,North,-999,0.0,0.0,87,-99.99,,,-99.99,,2013-05-17 06:01:00,
2013-05-16 23:11:00,47.0,43.0,-100.00,North,-999,0.0,0.0,87,-99.99,,,-99.99,,2013-05-17 06:11:00,
2013-05-16 23:21:00,46.0,43.0,-100.00,North,-999,0.0,0.0,88,-99.99,,,-99.99,,2013-05-17 06:21:00,
2013-05-16 23:32:00,46.0,43.0,-100.00,North,-999,0.0,0.0,88,-99.99,,,-99.99,,2013-05-17 06:32:00,
2013-05-16 23:42:00,46.0,43.0,-100.00,North,-999,0.0,0.0,88,-99.99,,,-99.99,,2013-05-17 06:42:00,
2013-05-16 23:52:00,46.0,43.0,-100.00,North,-999,0.0,0.0,89,-99.99,,,-99.99,,2013-05-17 06:52:00,